createdAt,value
2023-03-31T00:00:58.247Z,97782.25
2023-03-31T00:04:04.335Z,97770.03
2023-03-31T00:07:06.005Z,97755.38
2023-03-31T00:10:17.125Z,97758.03
2023-03-31T00:13:19.613Z,97735.34
2023-03-31T00:16:21.185Z,97737.06
2023-03-31T00:19:22.683Z,97736.31
2023-03-31T00:22:27.346Z,97719.75
2023-03-31T00:25:28.820Z,97718.88
2023-03-31T00:28:30.325Z,97709.50
2023-03-31T00:31:31.989Z,97713.59
2023-03-31T00:34:34.681Z,97719.81
2023-03-31T00:37:36.179Z,97712.81
2023-03-31T00:40:37.667Z,97714.59
2023-03-31T00:43:39.136Z,97717.19
2023-03-31T00:46:43.849Z,97715.34
2023-03-31T00:49:47.141Z,97724.75
2023-03-31T00:52:50.408Z,97736.19
2023-03-31T00:55:53.413Z,97748.28
2023-03-31T00:58:57.888Z,97755.16
2023-03-31T01:02:02.692Z,97777.84
2023-03-31T01:05:04.348Z,97784.78
2023-03-31T01:08:05.909Z,97808.66
2023-03-31T01:11:09.288Z,97829.31
2023-03-31T01:14:10.812Z,97852.56
2023-03-31T01:17:18.983Z,97859.63
2023-03-31T01:20:59.130Z,97848.34
2023-03-31T01:24:24.052Z,97834.44
2023-03-31T01:27:39.337Z,97821.38
2023-03-31T01:31:29.078Z,97815.34
2023-03-31T01:35:02.521Z,97790.56
2023-03-31T01:38:16.421Z,97780.22
2023-03-31T01:41:56.848Z,97756.91
2023-03-31T01:45:22.553Z,97735.34
2023-03-31T01:48:49.894Z,97703.19
2023-03-31T01:51:54.245Z,97656.53
2023-03-31T01:55:17.839Z,97632.19
2023-03-31T01:58:21.618Z,97620.22
2023-03-31T02:01:31.002Z,97611.59
2023-03-31T02:04:42.319Z,97600.19
2023-03-31T02:07:52.390Z,97600.97
2023-03-31T02:10:53.846Z,97583.69
2023-03-31T02:13:55.650Z,97560.28
2023-03-31T02:16:58.424Z,97549.72
2023-03-31T02:20:05.788Z,97546.34
2023-03-31T02:23:07.469Z,97525.53
2023-03-31T02:26:12.291Z,97505.69
2023-03-31T02:29:13.792Z,97511.94
2023-03-31T02:32:22.736Z,97492.84
2023-03-31T02:35:25.166Z,97475.56
2023-03-31T02:38:27.023Z,97462.53
2023-03-31T02:41:28.472Z,97440.81
2023-03-31T02:44:29.929Z,97431.38
2023-03-31T02:47:31.455Z,97419.38
2023-03-31T02:50:38.922Z,97413.50
2023-03-31T02:54:11.311Z,97400.25
2023-03-31T02:57:50.544Z,97397.88
2023-03-31T03:01:06.590Z,97366.75
2023-03-31T03:04:34.065Z,97358.84
2023-03-31T03:07:47.929Z,97362.47
2023-03-31T03:11:00.735Z,97339.06
2023-03-31T03:14:07.634Z,97323.50
2023-03-31T03:17:22.039Z,97314.06
2023-03-31T03:20:23.628Z,97277.13
2023-03-31T03:23:25.545Z,97257.06
2023-03-31T03:26:29.901Z,97256.94
2023-03-31T03:29:31.460Z,97249.03
2023-03-31T03:32:33.722Z,97235.22
2023-03-31T03:35:35.300Z,97217.22
2023-03-31T03:38:37.036Z,97205.91
2023-03-31T03:41:38.608Z,97201.56
2023-03-31T03:44:40.042Z,97206.84
2023-03-31T03:47:41.572Z,97194.78
2023-03-31T03:50:43.019Z,97187.50
2023-03-31T03:53:44.523Z,97184.81
2023-03-31T03:56:46.054Z,97173.59
2023-03-31T03:59:47.597Z,97193.72
2023-03-31T04:02:49.090Z,97189.31
2023-03-31T04:05:50.653Z,97188.53
2023-03-31T04:08:52.142Z,97200.56
2023-03-31T04:11:53.628Z,97218.78
2023-03-31T04:14:55.139Z,97222.34
2023-03-31T04:17:58.237Z,97219.63
2023-03-31T04:21:05.766Z,97234.31
2023-03-31T04:24:07.368Z,97202.94
2023-03-31T04:27:08.935Z,97174.41
2023-03-31T04:30:11.588Z,97164.00
2023-03-31T04:33:15.388Z,97166.56
2023-03-31T04:36:19.866Z,97155.94
2023-03-31T04:39:26.811Z,97148.84
2023-03-31T04:42:28.532Z,97163.50
2023-03-31T04:45:30.122Z,97141.19
2023-03-31T04:48:31.595Z,97150.66
2023-03-31T04:51:33.069Z,97163.63
2023-03-31T04:54:34.589Z,97161.81
2023-03-31T04:57:37.123Z,97180.00
2023-03-31T05:00:38.583Z,97169.22
2023-03-31T05:03:40.126Z,97161.75
2023-03-31T05:06:41.638Z,97165.94
2023-03-31T05:09:43.153Z,97148.75
2023-03-31T05:12:44.715Z,97162.22
2023-03-31T05:15:48.026Z,97160.50
2023-03-31T05:18:49.501Z,97160.47
2023-03-31T05:21:50.989Z,97157.94
2023-03-31T05:24:52.535Z,97135.50
2023-03-31T05:27:54.032Z,97121.59
2023-03-31T05:30:55.676Z,97129.59
2023-03-31T05:33:57.152Z,97116.19
2023-03-31T05:36:58.610Z,97114.44
2023-03-31T05:40:00.374Z,97094.31
2023-03-31T05:43:01.860Z,97102.22
2023-03-31T05:46:03.732Z,97097.72
2023-03-31T05:49:06.388Z,97094.22
2023-03-31T05:52:08.106Z,97103.53
2023-03-31T05:55:10.013Z,97092.94
2023-03-31T05:58:11.532Z,97082.63
2023-03-31T06:01:19.777Z,97095.09
2023-03-31T06:04:21.697Z,97109.13
2023-03-31T06:07:24.925Z,97137.25
2023-03-31T06:10:26.406Z,97135.31
2023-03-31T06:13:27.912Z,97156.81
2023-03-31T06:16:29.652Z,97178.84
2023-03-31T06:19:31.390Z,97189.50
2023-03-31T06:22:33.037Z,97201.88
2023-03-31T06:25:47.692Z,97219.06
2023-03-31T06:28:49.532Z,97239.69
2023-03-31T06:31:51.064Z,97225.91
2023-03-31T06:34:52.588Z,97218.22
2023-03-31T06:37:54.202Z,97223.63
2023-03-31T06:40:55.717Z,97216.66
2023-03-31T06:43:57.203Z,97237.09
2023-03-31T06:46:58.909Z,97258.53
2023-03-31T06:50:03.834Z,97251.81
2023-03-31T06:53:05.873Z,97249.91
2023-03-31T06:56:07.747Z,97271.22
2023-03-31T06:59:09.387Z,97278.13
2023-03-31T07:02:11.514Z,97285.72
2023-03-31T07:05:15.086Z,97271.16
2023-03-31T07:08:17.899Z,97265.72
2023-03-31T07:11:21.119Z,97260.22
2023-03-31T07:14:22.811Z,97261.31
2023-03-31T07:17:30.197Z,97262.25
2023-03-31T07:20:32.712Z,97256.81
2023-03-31T07:23:34.825Z,97253.03
2023-03-31T07:26:46.151Z,97249.16
2023-03-31T07:29:48.038Z,97243.84
2023-03-31T07:32:50.077Z,97249.91
2023-03-31T07:36:03.537Z,97246.03
2023-03-31T07:39:15.748Z,97261.13
2023-03-31T07:42:17.430Z,97255.38
2023-03-31T07:45:22.837Z,97286.44
2023-03-31T07:48:24.307Z,97290.16
2023-03-31T07:51:26.172Z,97293.91
2023-03-31T07:54:27.651Z,97294.97
2023-03-31T07:57:29.180Z,97300.72
2023-03-31T08:00:30.705Z,97293.97
2023-03-31T08:03:32.280Z,97306.59
2023-03-31T08:06:33.869Z,97321.50
2023-03-31T08:09:35.574Z,97328.53
2023-03-31T08:12:37.085Z,97338.09
2023-03-31T08:15:38.600Z,97336.88
2023-03-31T08:18:40.079Z,97340.84
2023-03-31T08:21:41.784Z,97331.03
2023-03-31T08:24:43.254Z,97343.97
2023-03-31T08:27:44.884Z,97362.31
2023-03-31T08:30:47.177Z,97357.91
2023-03-31T08:33:48.654Z,97365.53
2023-03-31T08:36:50.322Z,97349.66
2023-03-31T08:39:52.125Z,97372.56
2023-03-31T08:42:57.975Z,97375.53
2023-03-31T08:45:59.508Z,97377.56
2023-03-31T08:49:02.568Z,97375.28
2023-03-31T08:52:05.186Z,97369.84
2023-03-31T08:55:08.435Z,97381.78
2023-03-31T08:58:26.075Z,97386.56
2023-03-31T09:01:54.826Z,97387.38
2023-03-31T09:05:07.414Z,97375.44
2023-03-31T09:08:19.303Z,97381.19
2023-03-31T09:11:34.436Z,97362.38
2023-03-31T09:15:01.273Z,97359.09
2023-03-31T09:18:19.800Z,97335.72
2023-03-31T09:21:25.105Z,97351.75
2023-03-31T09:24:32.737Z,97330.81
2023-03-31T09:27:37.156Z,97330.66
2023-03-31T09:30:38.640Z,97330.38
2023-03-31T09:33:45.512Z,97330.59
2023-03-31T09:36:47.542Z,97327.03
2023-03-31T09:39:49.134Z,97323.97
2023-03-31T09:42:56.223Z,97319.97
2023-03-31T09:46:09.369Z,97322.38
2023-03-31T09:49:12.972Z,97332.88
2023-03-31T09:52:27.297Z,97313.94
2023-03-31T09:55:45.489Z,97323.44
2023-03-31T09:58:47.897Z,97317.88
2023-03-31T10:01:53.161Z,97313.63
2023-03-31T10:04:54.779Z,97298.75
2023-03-31T10:08:12.408Z,97297.50
2023-03-31T10:11:13.951Z,97274.91
2023-03-31T10:14:15.646Z,97262.47
2023-03-31T10:17:23.719Z,97271.03
2023-03-31T10:20:33.175Z,97262.81
2023-03-31T10:23:35.492Z,97250.47
2023-03-31T10:26:36.966Z,97240.84
2023-03-31T10:29:38.431Z,97256.28
2023-03-31T10:32:42.859Z,97275.13
2023-03-31T10:35:44.428Z,97356.28
2023-03-31T10:38:46.091Z,97470.19
2023-03-31T10:41:51.540Z,97440.03
2023-03-31T10:45:23.253Z,97450.19
2023-03-31T10:48:33.006Z,97453.88
2023-03-31T10:51:34.499Z,97467.25
2023-03-31T10:54:36.335Z,97436.16
2023-03-31T10:57:52.433Z,97418.81
2023-03-31T11:01:13.041Z,97401.66
2023-03-31T11:04:40.346Z,97364.31
2023-03-31T11:07:51.158Z,97328.66
2023-03-31T11:11:17.162Z,97339.72
2023-03-31T11:14:37.220Z,97324.94
2023-03-31T11:18:00.722Z,97324.69
2023-03-31T11:21:12.400Z,97297.47
2023-03-31T11:24:19.888Z,97315.63
2023-03-31T11:27:52.002Z,97311.09
2023-03-31T11:31:01.198Z,97311.13
2023-03-31T11:34:30.129Z,97315.81
2023-03-31T11:38:01.627Z,97328.50
2023-03-31T11:41:06.790Z,97348.00
2023-03-31T11:44:12.431Z,97318.59
2023-03-31T11:47:17.098Z,97253.66
2023-03-31T11:50:20.917Z,97282.09
2023-03-31T11:53:25.901Z,97266.34
2023-03-31T11:56:33.674Z,97258.50
2023-03-31T11:59:35.385Z,97290.50
2023-03-31T12:02:55.999Z,97276.09
2023-03-31T12:06:19.039Z,97271.44
2023-03-31T12:09:50.179Z,97272.97
2023-03-31T12:12:53.012Z,97273.19
2023-03-31T12:16:01.433Z,97227.41
2023-03-31T12:19:19.191Z,97226.84
2023-03-31T12:22:26.324Z,97224.94
2023-03-31T12:25:36.052Z,97217.00
2023-03-31T12:28:38.221Z,97195.31
2023-03-31T12:31:40.000Z,97179.56
2023-03-31T12:35:17.481Z,97170.25
2023-03-31T12:38:41.841Z,97151.06
2023-03-31T12:41:55.680Z,97164.19
2023-03-31T12:45:14.335Z,97179.91
2023-03-31T12:48:31.561Z,97199.78
2023-03-31T12:52:04.664Z,97196.19
2023-03-31T12:55:28.870Z,97234.25
2023-03-31T12:58:32.918Z,97282.28
2023-03-31T13:01:34.948Z,97244.28
2023-03-31T13:04:37.172Z,97217.91
2023-03-31T13:07:41.229Z,97229.13
2023-03-31T13:10:58.424Z,97225.72
2023-03-31T13:14:02.141Z,97232.59
2023-03-31T13:17:19.247Z,97162.94
2023-03-31T13:20:35.988Z,97135.72
2023-03-31T13:23:37.851Z,97180.16
2023-03-31T13:26:46.636Z,97203.59
2023-03-31T13:29:48.151Z,97205.00
2023-03-31T13:33:03.976Z,97163.91
2023-03-31T13:36:17.798Z,97172.78
2023-03-31T13:39:57.083Z,97140.00
2023-03-31T13:43:19.484Z,97153.41
2023-03-31T13:46:51.264Z,97151.31
2023-03-31T13:49:58.645Z,97136.53
2023-03-31T13:53:28.065Z,97133.88
2023-03-31T13:57:00.683Z,97135.69
2023-03-31T14:00:12.512Z,97137.19
2023-03-31T14:03:30.190Z,97155.50
2023-03-31T14:06:53.770Z,97197.53
2023-03-31T14:09:56.955Z,97203.25
2023-03-31T14:13:08.353Z,97203.63
2023-03-31T14:16:10.152Z,97205.06
2023-03-31T14:19:30.788Z,97200.72
2023-03-31T14:22:48.018Z,97191.59
2023-03-31T14:26:27.050Z,97188.59
2023-03-31T14:29:36.506Z,97173.66
2023-03-31T14:32:48.009Z,97176.44
2023-03-31T14:35:58.622Z,97181.16
2023-03-31T14:39:04.549Z,97169.66
2023-03-31T14:42:10.630Z,97151.34
2023-03-31T14:45:24.902Z,97160.06
2023-03-31T14:48:28.549Z,97143.13
2023-03-31T14:51:30.756Z,97157.84
2023-03-31T14:54:34.278Z,97138.19
2023-03-31T14:57:37.624Z,97137.41
2023-03-31T15:00:39.118Z,97137.66
2023-03-31T15:03:43.998Z,97143.78
2023-03-31T15:06:46.442Z,97147.56
2023-03-31T15:09:50.007Z,97144.94
2023-03-31T15:12:51.764Z,97129.06
2023-03-31T15:15:53.254Z,97120.13
2023-03-31T15:18:54.966Z,97127.09
2023-03-31T15:22:04.655Z,97126.63
2023-03-31T15:25:06.211Z,97120.31
2023-03-31T15:28:08.733Z,97094.09
2023-03-31T15:31:10.910Z,97096.03
2023-03-31T15:34:33.163Z,97108.56
2023-03-31T15:37:40.326Z,97132.28
2023-03-31T15:40:43.026Z,97190.22
2023-03-31T15:43:50.806Z,97263.19
2023-03-31T15:46:59.796Z,97246.00
2023-03-31T15:50:08.018Z,97172.44
2023-03-31T15:53:35.674Z,97098.88
2023-03-31T15:56:46.736Z,97048.22
2023-03-31T15:59:55.508Z,97066.78
2023-03-31T16:02:58.842Z,97069.13
2023-03-31T16:06:02.320Z,97067.19
2023-03-31T16:09:08.966Z,97075.78
2023-03-31T16:12:17.596Z,97052.88
2023-03-31T16:15:23.719Z,97056.34
2023-03-31T16:18:32.910Z,97012.09
2023-03-31T16:21:45.331Z,96994.13
2023-03-31T16:24:46.817Z,96979.19
2023-03-31T16:27:55.214Z,96962.19
2023-03-31T16:30:58.953Z,96963.81
2023-03-31T16:34:00.826Z,96946.47
2023-03-31T16:37:09.632Z,96948.91
2023-03-31T16:40:11.642Z,96952.66
2023-03-31T16:43:23.833Z,96983.63
2023-03-31T16:46:25.483Z,97003.56
2023-03-31T16:49:27.353Z,96984.22
2023-03-31T16:52:29.460Z,96981.97
2023-03-31T16:55:31.587Z,96969.66
2023-03-31T16:58:33.880Z,96985.28
2023-03-31T17:01:35.604Z,96986.81
2023-03-31T17:04:38.377Z,96987.50
2023-03-31T17:07:40.765Z,96991.13
2023-03-31T17:10:42.386Z,96984.81
2023-03-31T17:13:44.610Z,96983.72
2023-03-31T17:20:11.371Z,96990.69
2023-03-31T17:23:12.952Z,96994.94
2023-03-31T17:26:14.506Z,97006.88
2023-03-31T17:29:16.761Z,97008.50
2023-03-31T17:32:19.086Z,97022.13
2023-03-31T17:35:21.635Z,97042.34
2023-03-31T17:38:23.178Z,97013.66
2023-03-31T17:41:25.322Z,97019.78
2023-03-31T17:44:27.142Z,97018.09
2023-03-31T17:47:30.692Z,97016.53
2023-03-31T17:50:32.932Z,97021.69
2023-03-31T17:53:35.492Z,97023.56
2023-03-31T17:56:37.116Z,97041.66
2023-03-31T17:59:38.993Z,97038.81
2023-03-31T18:02:40.692Z,97058.75
2023-03-31T18:05:42.299Z,97067.44
2023-03-31T18:08:44.368Z,97080.09
2023-03-31T18:11:45.944Z,97086.88
2023-03-31T18:14:48.058Z,97097.41
2023-03-31T18:17:50.417Z,97104.97
2023-03-31T18:20:51.772Z,97132.72
2023-03-31T18:23:55.026Z,97140.44
2023-03-31T18:26:56.863Z,97137.03
2023-03-31T18:29:58.317Z,97160.13
2023-03-31T18:32:59.958Z,97162.03
2023-03-31T18:36:01.941Z,97156.63
2023-03-31T18:39:04.180Z,97156.56
2023-03-31T18:42:05.771Z,97161.22
2023-03-31T18:45:09.025Z,97149.34
2023-03-31T18:48:10.644Z,97140.72
2023-03-31T18:51:12.402Z,97154.97
2023-03-31T18:54:13.905Z,97151.19
2023-03-31T18:57:15.598Z,97153.91
2023-03-31T19:00:17.699Z,97149.47
2023-03-31T19:03:19.485Z,97147.34
2023-03-31T19:06:22.394Z,97153.97
2023-03-31T19:09:26.370Z,97148.88
2023-03-31T19:12:27.820Z,97144.88
2023-03-31T19:15:29.429Z,97156.09
2023-03-31T19:18:31.785Z,97161.22
2023-03-31T19:21:36.266Z,97164.00
2023-03-31T19:24:38.025Z,97174.31
2023-03-31T19:27:40.231Z,97190.81
2023-03-31T19:30:41.703Z,97202.81
2023-03-31T19:33:43.159Z,97204.59
2023-03-31T19:36:44.609Z,97213.84
2023-03-31T19:39:46.279Z,97199.06
2023-03-31T19:42:47.773Z,97201.81
2023-03-31T19:45:49.627Z,97192.97
2023-03-31T19:48:51.192Z,97199.16
2023-03-31T19:51:52.698Z,97196.38
2023-03-31T19:54:54.367Z,97201.47
2023-03-31T19:57:55.962Z,97207.59
2023-03-31T20:00:57.777Z,97204.19
2023-03-31T20:03:59.358Z,97214.50
2023-03-31T20:07:01.171Z,97204.13
2023-03-31T20:10:02.649Z,97214.56
2023-03-31T20:13:04.147Z,97219.06
2023-03-31T20:16:10.378Z,97214.75
2023-03-31T20:19:13.235Z,97216.34
2023-03-31T20:22:15.083Z,97221.69
2023-03-31T20:25:16.638Z,97217.66
2023-03-31T20:28:18.121Z,97201.94
2023-03-31T20:31:21.571Z,97208.81
2023-03-31T20:34:23.400Z,97218.97
2023-03-31T20:37:24.912Z,97231.44
2023-03-31T20:40:26.369Z,97244.47
2023-03-31T20:43:27.881Z,97240.47
2023-03-31T20:46:29.461Z,97223.06
2023-03-31T20:49:31.266Z,97236.88
2023-03-31T20:52:32.715Z,97236.94
2023-03-31T20:55:34.210Z,97228.31
2023-03-31T20:58:35.717Z,97236.25
2023-03-31T21:01:37.343Z,97246.91
2023-03-31T21:04:38.826Z,97254.66
2023-03-31T21:07:40.430Z,97253.63
2023-03-31T21:10:43.308Z,97250.16
2023-03-31T21:13:45.331Z,97239.03
2023-03-31T21:16:46.885Z,97239.78
2023-03-31T21:19:48.398Z,97217.03
2023-03-31T21:22:49.880Z,97231.81
2023-03-31T21:25:56.652Z,97234.78
2023-03-31T21:28:59.466Z,97231.59
2023-03-31T21:32:02.160Z,97212.19
2023-03-31T21:35:03.782Z,97214.03
2023-03-31T21:38:05.318Z,97217.56
2023-03-31T21:41:24.016Z,97209.91
2023-03-31T21:44:26.294Z,97220.69
2023-03-31T21:47:28.361Z,97209.34
2023-03-31T21:50:29.878Z,97209.38
2023-03-31T21:53:31.510Z,97180.78
2023-03-31T21:56:33.000Z,97199.97
2023-03-31T21:59:34.476Z,97179.13
2023-03-31T22:02:36.374Z,97188.63
2023-03-31T22:05:37.909Z,97191.09
2023-03-31T22:08:39.399Z,97185.88
2023-03-31T22:11:41.469Z,97201.38
2023-03-31T22:14:42.908Z,97197.03
2023-03-31T22:17:44.444Z,97201.38
2023-03-31T22:20:46.214Z,97209.25
2023-03-31T22:23:47.704Z,97204.25
2023-03-31T22:26:49.203Z,97208.47
2023-03-31T22:29:50.687Z,97206.78
2023-03-31T22:32:52.392Z,97207.59
2023-03-31T22:35:53.906Z,97215.38
2023-03-31T22:38:55.381Z,97213.53
2023-03-31T22:41:56.830Z,97220.59
2023-03-31T22:44:58.314Z,97228.41
2023-03-31T22:47:59.832Z,97213.66
2023-03-31T22:51:05.752Z,97223.19
2023-03-31T22:54:07.830Z,97229.25
2023-03-31T22:57:09.447Z,97217.91
2023-03-31T23:00:12.654Z,97230.16
2023-03-31T23:03:14.122Z,97226.41
2023-03-31T23:06:15.616Z,97219.31
2023-03-31T23:09:17.086Z,97233.22
2023-03-31T23:12:18.587Z,97234.47
2023-03-31T23:15:20.214Z,97216.09
2023-03-31T23:18:22.434Z,97220.44
2023-03-31T23:21:25.497Z,97223.13
2023-03-31T23:24:29.202Z,97227.31
2023-03-31T23:27:30.660Z,97226.38
2023-03-31T23:30:32.141Z,97229.06
2023-03-31T23:33:33.677Z,97231.78
2023-03-31T23:36:35.145Z,97214.44
2023-03-31T23:39:38.742Z,97232.59
2023-03-31T23:42:40.691Z,97241.06
2023-03-31T23:45:42.573Z,97237.72
2023-03-31T23:48:44.078Z,97245.47
2023-03-31T23:51:45.630Z,97258.44
2023-03-31T23:54:47.303Z,97266.06
2023-03-31T23:57:48.845Z,97275.50
